sensor_id;sensor_type;location;lat;lon;timestamp;P1;durP1;ratioP1;P2;durP2;ratioP2
46597;SDS011;32318;48.858;8.252;2022-09-21T00:06:50;5.43;;;1.90;;
46597;SDS011;32318;48.858;8.252;2022-09-21T00:14:50;6.28;;;1.83;;
46597;SDS011;32318;48.858;8.252;2022-09-21T00:22:51;7.63;;;2.10;;
46597;SDS011;32318;48.858;8.252;2022-09-21T00:30:51;6.55;;;2.00;;
46597;SDS011;32318;48.858;8.252;2022-09-21T00:38:53;5.90;;;1.88;;
46597;SDS011;32318;48.858;8.252;2022-09-21T00:46:56;5.10;;;1.52;;
46597;SDS011;32318;48.858;8.252;2022-09-21T00:55:05;12.07;;;1.85;;
46597;SDS011;32318;48.858;8.252;2022-09-21T01:03:11;3.45;;;1.50;;
46597;SDS011;32318;48.858;8.252;2022-09-21T01:19:57;12.32;;;1.80;;
46597;SDS011;32318;48.858;8.252;2022-09-21T01:36:45;5.38;;;1.92;;
46597;SDS011;32318;48.858;8.252;2022-09-21T01:44:47;8.55;;;2.00;;
46597;SDS011;32318;48.858;8.252;2022-09-21T01:52:49;7.82;;;2.08;;
46597;SDS011;32318;48.858;8.252;2022-09-21T02:00:52;3.92;;;1.83;;
46597;SDS011;32318;48.858;8.252;2022-09-21T02:08:55;3.63;;;1.90;;
46597;SDS011;32318;48.858;8.252;2022-09-21T02:17:04;9.07;;;2.22;;
46597;SDS011;32318;48.858;8.252;2022-09-21T02:25:10;5.53;;;2.17;;
46597;SDS011;32318;48.858;8.252;2022-09-21T02:33:19;8.20;;;3.03;;
46597;SDS011;32318;48.858;8.252;2022-09-21T02:41:29;4.78;;;1.80;;
46597;SDS011;32318;48.858;8.252;2022-09-21T02:49:38;6.20;;;1.90;;
46597;SDS011;32318;48.858;8.252;2022-09-21T02:57:43;6.00;;;1.90;;
46597;SDS011;32318;48.858;8.252;2022-09-21T03:05:47;5.43;;;1.90;;
46597;SDS011;32318;48.858;8.252;2022-09-21T03:13:49;3.25;;;1.70;;
46597;SDS011;32318;48.858;8.252;2022-09-21T03:21:49;5.65;;;1.90;;
46597;SDS011;32318;48.858;8.252;2022-09-21T03:29:50;6.07;;;2.17;;
46597;SDS011;32318;48.858;8.252;2022-09-21T03:37:50;6.40;;;2.03;;
46597;SDS011;32318;48.858;8.252;2022-09-21T03:45:50;6.40;;;2.10;;
46597;SDS011;32318;48.858;8.252;2022-09-21T03:53:51;4.50;;;2.13;;
46597;SDS011;32318;48.858;8.252;2022-09-21T04:01:51;15.03;;;2.43;;
46597;SDS011;32318;48.858;8.252;2022-09-21T04:09:52;11.32;;;2.35;;
46597;SDS011;32318;48.858;8.252;2022-09-21T04:17:53;8.88;;;2.80;;
46597;SDS011;32318;48.858;8.252;2022-09-21T04:25:53;6.40;;;2.40;;
46597;SDS011;32318;48.858;8.252;2022-09-21T04:33:54;7.40;;;3.00;;
46597;SDS011;32318;48.858;8.252;2022-09-21T04:41:56;5.53;;;2.40;;
46597;SDS011;32318;48.858;8.252;2022-09-21T04:49:57;6.78;;;2.67;;
46597;SDS011;32318;48.858;8.252;2022-09-21T04:57:57;12.25;;;2.40;;
46597;SDS011;32318;48.858;8.252;2022-09-21T05:05:58;7.43;;;3.20;;
46597;SDS011;32318;48.858;8.252;2022-09-21T05:13:58;7.45;;;3.10;;
46597;SDS011;32318;48.858;8.252;2022-09-21T05:21:58;26.70;;;5.22;;
46597;SDS011;32318;48.858;8.252;2022-09-21T05:29:59;6.53;;;3.03;;
46597;SDS011;32318;48.858;8.252;2022-09-21T05:46:10;6.43;;;3.00;;
46597;SDS011;32318;48.858;8.252;2022-09-21T05:54:23;6.70;;;2.53;;
46597;SDS011;32318;48.858;8.252;2022-09-21T06:10:29;8.40;;;2.95;;
46597;SDS011;32318;48.858;8.252;2022-09-21T06:18:36;9.38;;;3.72;;
46597;SDS011;32318;48.858;8.252;2022-09-21T06:26:40;14.60;;;3.53;;
46597;SDS011;32318;48.858;8.252;2022-09-21T06:34:40;9.05;;;3.90;;
46597;SDS011;32318;48.858;8.252;2022-09-21T06:42:41;19.92;;;4.47;;
46597;SDS011;32318;48.858;8.252;2022-09-21T06:50:42;12.80;;;4.22;;
46597;SDS011;32318;48.858;8.252;2022-09-21T06:58:42;34.00;;;5.65;;
46597;SDS011;32318;48.858;8.252;2022-09-21T07:06:42;13.15;;;4.90;;
46597;SDS011;32318;48.858;8.252;2022-09-21T07:14:42;12.13;;;4.82;;
46597;SDS011;32318;48.858;8.252;2022-09-21T07:22:46;15.27;;;4.78;;
46597;SDS011;32318;48.858;8.252;2022-09-21T07:30:46;14.50;;;4.55;;
46597;SDS011;32318;48.858;8.252;2022-09-21T07:38:46;17.20;;;4.82;;
46597;SDS011;32318;48.858;8.252;2022-09-21T07:46:47;16.23;;;5.18;;
46597;SDS011;32318;48.858;8.252;2022-09-21T07:54:48;15.20;;;5.07;;
46597;SDS011;32318;48.858;8.252;2022-09-21T08:02:48;12.70;;;5.45;;
46597;SDS011;32318;48.858;8.252;2022-09-21T08:10:48;16.77;;;7.20;;
46597;SDS011;32318;48.858;8.252;2022-09-21T08:18:50;13.68;;;3.80;;
46597;SDS011;32318;48.858;8.252;2022-09-21T08:26:50;11.18;;;4.88;;
46597;SDS011;32318;48.858;8.252;2022-09-21T08:34:51;12.75;;;5.47;;
46597;SDS011;32318;48.858;8.252;2022-09-21T08:42:55;12.52;;;4.30;;
46597;SDS011;32318;48.858;8.252;2022-09-21T08:51:01;9.15;;;3.65;;
46597;SDS011;32318;48.858;8.252;2022-09-21T08:59:09;8.38;;;3.40;;
46597;SDS011;32318;48.858;8.252;2022-09-21T09:07:30;18.33;;;5.25;;
46597;SDS011;32318;48.858;8.252;2022-09-21T09:15:59;10.05;;;2.92;;
46597;SDS011;32318;48.858;8.252;2022-09-21T09:32:32;7.60;;;1.95;;
46597;SDS011;32318;48.858;8.252;2022-09-21T09:40:51;8.82;;;2.00;;
46597;SDS011;32318;48.858;8.252;2022-09-21T09:49:10;9.73;;;1.70;;
46597;SDS011;32318;48.858;8.252;2022-09-21T09:57:19;8.57;;;1.70;;
46597;SDS011;32318;48.858;8.252;2022-09-21T10:13:29;6.53;;;1.85;;
46597;SDS011;32318;48.858;8.252;2022-09-21T10:21:36;5.88;;;1.58;;
46597;SDS011;32318;48.858;8.252;2022-09-21T10:37:45;4.97;;;1.20;;
46597;SDS011;32318;48.858;8.252;2022-09-21T10:45:56;7.25;;;1.58;;
46597;SDS011;32318;48.858;8.252;2022-09-21T10:53:56;5.13;;;1.42;;
46597;SDS011;32318;48.858;8.252;2022-09-21T11:01:58;7.03;;;1.13;;
46597;SDS011;32318;48.858;8.252;2022-09-21T11:10:05;9.20;;;1.00;;
46597;SDS011;32318;48.858;8.252;2022-09-21T11:18:17;3.83;;;1.00;;
46597;SDS011;32318;48.858;8.252;2022-09-21T11:26:26;8.65;;;1.73;;
46597;SDS011;32318;48.858;8.252;2022-09-21T11:42:46;2.25;;;0.75;;
46597;SDS011;32318;48.858;8.252;2022-09-21T11:51:14;3.97;;;1.00;;
46597;SDS011;32318;48.858;8.252;2022-09-21T11:59:34;3.50;;;0.82;;
46597;SDS011;32318;48.858;8.252;2022-09-21T12:24:03;2.25;;;0.75;;
46597;SDS011;32318;48.858;8.252;2022-09-21T12:32:20;5.47;;;0.93;;
46597;SDS011;32318;48.858;8.252;2022-09-21T12:40:38;2.27;;;0.97;;
46597;SDS011;32318;48.858;8.252;2022-09-21T12:48:46;5.43;;;1.00;;
46597;SDS011;32318;48.858;8.252;2022-09-21T12:56:50;4.68;;;0.73;;
46597;SDS011;32318;48.858;8.252;2022-09-21T13:21:34;5.30;;;0.50;;
46597;SDS011;32318;48.858;8.252;2022-09-21T13:29:35;7.57;;;0.82;;
46597;SDS011;32318;48.858;8.252;2022-09-21T13:37:39;2.58;;;0.90;;
46597;SDS011;32318;48.858;8.252;2022-09-21T13:53:40;4.60;;;0.98;;
46597;SDS011;32318;48.858;8.252;2022-09-21T14:01:41;1.88;;;0.60;;
46597;SDS011;32318;48.858;8.252;2022-09-21T14:09:49;4.50;;;0.80;;
46597;SDS011;32318;48.858;8.252;2022-09-21T14:18:15;4.47;;;0.95;;
46597;SDS011;32318;48.858;8.252;2022-09-21T14:34:40;2.15;;;0.80;;
46597;SDS011;32318;48.858;8.252;2022-09-21T14:42:44;4.43;;;1.20;;
46597;SDS011;32318;48.858;8.252;2022-09-21T15:07:38;3.95;;;1.10;;
46597;SDS011;32318;48.858;8.252;2022-09-21T15:24:33;3.40;;;1.23;;
46597;SDS011;32318;48.858;8.252;2022-09-21T15:32:38;2.83;;;0.70;;
46597;SDS011;32318;48.858;8.252;2022-09-21T15:40:45;6.68;;;0.90;;
46597;SDS011;32318;48.858;8.252;2022-09-21T15:56:46;3.00;;;1.08;;
46597;SDS011;32318;48.858;8.252;2022-09-21T16:04:50;2.00;;;0.68;;
46597;SDS011;32318;48.858;8.252;2022-09-21T16:12:57;2.85;;;0.80;;
46597;SDS011;32318;48.858;8.252;2022-09-21T16:21:22;1.65;;;0.90;;
46597;SDS011;32318;48.858;8.252;2022-09-21T16:29:46;1.77;;;0.75;;
46597;SDS011;32318;48.858;8.252;2022-09-21T16:38:01;3.45;;;0.73;;
46597;SDS011;32318;48.858;8.252;2022-09-21T16:46:01;1.50;;;0.75;;
46597;SDS011;32318;48.858;8.252;2022-09-21T17:02:36;3.97;;;1.20;;
46597;SDS011;32318;48.858;8.252;2022-09-21T17:11:03;2.35;;;0.90;;
46597;SDS011;32318;48.858;8.252;2022-09-21T17:19:03;4.43;;;0.90;;
46597;SDS011;32318;48.858;8.252;2022-09-21T17:27:04;3.60;;;0.90;;
46597;SDS011;32318;48.858;8.252;2022-09-21T17:35:16;4.28;;;1.00;;
46597;SDS011;32318;48.858;8.252;2022-09-21T17:43:48;6.57;;;1.38;;
46597;SDS011;32318;48.858;8.252;2022-09-21T17:51:56;6.45;;;2.35;;
46597;SDS011;32318;48.858;8.252;2022-09-21T18:00:20;4.00;;;1.15;;
46597;SDS011;32318;48.858;8.252;2022-09-21T18:08:23;3.13;;;1.33;;
46597;SDS011;32318;48.858;8.252;2022-09-21T18:16:36;4.20;;;1.52;;
46597;SDS011;32318;48.858;8.252;2022-09-21T18:24:46;5.65;;;2.22;;
46597;SDS011;32318;48.858;8.252;2022-09-21T18:49:37;5.35;;;2.33;;
46597;SDS011;32318;48.858;8.252;2022-09-21T18:57:44;6.43;;;1.67;;
46597;SDS011;32318;48.858;8.252;2022-09-21T19:05:57;2.45;;;1.52;;
46597;SDS011;32318;48.858;8.252;2022-09-21T19:30:49;4.13;;;1.80;;
46597;SDS011;32318;48.858;8.252;2022-09-21T19:38:52;5.15;;;1.80;;
46597;SDS011;32318;48.858;8.252;2022-09-21T19:47:02;3.38;;;1.90;;
46597;SDS011;32318;48.858;8.252;2022-09-21T19:55:18;5.35;;;1.88;;
46597;SDS011;32318;48.858;8.252;2022-09-21T20:03:39;5.95;;;1.88;;
46597;SDS011;32318;48.858;8.252;2022-09-21T20:11:55;4.45;;;2.10;;
46597;SDS011;32318;48.858;8.252;2022-09-21T20:20:19;7.30;;;2.50;;
46597;SDS011;32318;48.858;8.252;2022-09-21T20:28:21;6.97;;;2.15;;
46597;SDS011;32318;48.858;8.252;2022-09-21T20:36:21;7.13;;;2.20;;
46597;SDS011;32318;48.858;8.252;2022-09-21T20:44:21;4.88;;;2.28;;
46597;SDS011;32318;48.858;8.252;2022-09-21T20:52:22;5.32;;;2.10;;
46597;SDS011;32318;48.858;8.252;2022-09-21T21:00:22;10.32;;;2.10;;
46597;SDS011;32318;48.858;8.252;2022-09-21T21:08:22;6.90;;;2.40;;
46597;SDS011;32318;48.858;8.252;2022-09-21T21:16:24;7.10;;;2.00;;
46597;SDS011;32318;48.858;8.252;2022-09-21T21:24:38;6.70;;;2.05;;
46597;SDS011;32318;48.858;8.252;2022-09-21T21:32:51;5.70;;;2.90;;
46597;SDS011;32318;48.858;8.252;2022-09-21T21:40:55;10.55;;;3.95;;
46597;SDS011;32318;48.858;8.252;2022-09-21T21:48:55;7.83;;;2.60;;
46597;SDS011;32318;48.858;8.252;2022-09-21T21:56:55;5.07;;;2.28;;
46597;SDS011;32318;48.858;8.252;2022-09-21T22:04:57;5.38;;;2.42;;
46597;SDS011;32318;48.858;8.252;2022-09-21T22:12:58;5.40;;;2.40;;
46597;SDS011;32318;48.858;8.252;2022-09-21T22:21:01;5.25;;;2.08;;
46597;SDS011;32318;48.858;8.252;2022-09-21T22:29:07;10.55;;;3.28;;
46597;SDS011;32318;48.858;8.252;2022-09-21T22:37:11;4.55;;;1.90;;
46597;SDS011;32318;48.858;8.252;2022-09-21T22:45:12;5.72;;;2.45;;
46597;SDS011;32318;48.858;8.252;2022-09-21T22:53:12;8.70;;;2.23;;
46597;SDS011;32318;48.858;8.252;2022-09-21T23:01:32;7.43;;;2.50;;
46597;SDS011;32318;48.858;8.252;2022-09-21T23:09:35;3.75;;;2.17;;
46597;SDS011;32318;48.858;8.252;2022-09-21T23:17:38;7.70;;;2.40;;
46597;SDS011;32318;48.858;8.252;2022-09-21T23:25:38;4.97;;;1.70;;
46597;SDS011;32318;48.858;8.252;2022-09-21T23:33:40;6.40;;;1.97;;
46597;SDS011;32318;48.858;8.252;2022-09-21T23:41:44;7.03;;;2.15;;
46597;SDS011;32318;48.858;8.252;2022-09-21T23:49:47;5.50;;;2.10;;
46597;SDS011;32318;48.858;8.252;2022-09-21T23:57:47;5.95;;;2.20;;
